Time;durP1;ratioP1;P1;durP2;ratioP2;P2;SDS_P1;SDS_P2;PMS_P1;PMS_P2;Temp;Humidity;BMP_temperature;BMP_pressure;BME280_temperature;BME280_humidity;BME280_pressure;Samples;Min_cycle;Max_cycle;Signal;HPM_P1;HPM_P2
2023/01/01 00:00:03;;;;;;;;;;;;;;;;;;6126806;23;20340;-79
2023/01/01 00:02:29;;;;;;;37.97;5.80;;;;;;;;;;6126321;23;19913;-77
2023/01/01 00:04:55;;;;;;;;;;;;;;;;;;6127095;23;20077;-77
2023/01/01 00:07:21;;;;;;;35.25;5.57;;;;;;;;;;6126563;23;19900;-77
2023/01/01 00:12:32;;;;;;;29.13;5.10;;;;;;;;;;6125969;23;20298;-77
2023/01/01 00:14:58;;;;;;;39.60;5.47;;;;;;;;;;6126266;23;20002;-79
2023/01/01 00:17:24;;;;;;;;;;;;;;;;;;6126806;23;20009;-78
2023/01/01 00:19:50;;;;;;;37.45;5.82;;;;;;;;;;6126491;23;19901;-77
2023/01/01 00:22:16;;;;;;;;;;;;;;;;;;6128294;23;20054;-77
2023/01/01 00:24:42;;;;;;;37.42;6.15;;;;;;;;;;6128228;23;19905;-79
2023/01/01 00:27:08;;;;;;;;;;;;;;;;;;6129345;23;20053;-77
2023/01/01 00:29:34;;;;;;;34.17;5.00;;;;;;;;;;6128203;23;20283;-78
2023/01/01 00:32:00;;;;;;;;;;;;;;;;;;6128825;23;20013;-77
2023/01/01 00:34:26;;;;;;;35.10;5.95;;;;;;;;;;6128163;23;19905;-77
2023/01/01 00:36:52;;;;;;;;;;;;;;;;;;6128594;23;20009;-77
2023/01/01 00:39:18;;;;;;;34.85;5.38;;;;;;;;;;6128189;23;19901;-77
2023/01/01 00:41:44;;;;;;;;;;;;;;;;;;6128729;23;20005;-78
2023/01/01 00:44:10;;;;;;;37.03;5.18;;;;;;;;;;6128084;23;20284;-76
2023/01/01 00:46:36;;;;;;;;;;;;;;;;;;6128499;23;20037;-77
2023/01/01 00:49:02;;;;;;;30.48;5.03;;;;;;;;;;6128007;23;19908;-77
2023/01/01 00:51:29;;;;;;;;;;;;;;;;;;6128477;23;20013;-78
2023/01/01 00:53:55;;;;;;;33.53;5.07;;;;;;;;;;6127982;23;20321;-77
2023/01/01 00:56:21;;;;;;;;;;;;;;;;;;6128404;23;20341;-77
2023/01/01 00:58:47;;;;;;;32.15;5.15;;;;;;;;;;6127732;23;19924;-78
2023/01/01 01:01:13;;;;;;;;;;;;;;;;;;6128816;23;20002;-77
2023/01/01 01:03:39;;;;;;;33.72;5.30;;;;;;;;;;6128143;23;19901;-76
2023/01/01 01:06:07;;;;;;;35.13;5.95;;;;;;;;;;6127884;23;20002;-78
2023/01/01 01:08:34;;;;;;;34.83;6.30;;;;;;;;;;6126270;23;20037;-77
2023/01/01 01:11:07;;;;;;;27.63;5.07;;;;;;;;;;6126291;23;20008;-77
2023/01/01 01:13:33;;;;;;;35.03;6.18;;;;;;;;;;6127768;23;20453;-78
2023/01/01 01:16:00;;;;;;;35.97;5.65;;;;;;;;;;6127762;23;20074;-77
2023/01/01 01:18:26;;;;;;;29.95;5.40;;;;;;;;;;6127893;23;20009;-77
2023/01/01 01:20:53;;;;;;;30.92;5.50;;;;;;;;;;6127590;23;20081;-76
2023/01/01 01:23:20;;;;;;;37.20;5.97;;;;;;;;;;6128213;23;20069;-78
2023/01/01 01:25:46;;;;;;;38.20;5.80;;;;;;;;;;6126180;23;20013;-79
2023/01/01 01:28:12;;;;;;;33.08;5.50;;;;;;;;;;6126125;23;20002;-77
2023/01/01 01:30:38;;;;;;;32.38;6.22;;;;;;;;;;6126139;23;20010;-77
2023/01/01 01:33:04;;;;;;;34.20;5.18;;;;;;;;;;6127568;23;20073;-77
2023/01/01 01:35:31;;;;;;;;;;;;;;;;;;6128369;23;20013;-77
2023/01/01 01:37:58;;;;;;;25.88;4.40;;;;;;;;;;6127583;23;19955;-76
2023/01/01 01:40:24;;;;;;;22.83;3.80;;;;;;;;;;6127498;23;20001;-77
2023/01/01 01:42:50;;;;;;;32.72;5.25;;;;;;;;;;6127707;23;19998;-78
2023/01/01 01:45:17;;;;;;;26.30;4.10;;;;;;;;;;6127471;23;20026;-78
2023/01/01 01:47:52;;;;;;;22.98;4.15;;;;;;;;;;6127651;23;19998;-78
2023/01/01 01:50:26;;;;;;;21.63;3.80;;;;;;;;;;6127414;23;20024;-77
2023/01/01 01:53:04;;;;;;;25.30;4.40;;;;;;;;;;6127346;23;20077;-78
2023/01/01 01:55:31;;;;;;;29.85;4.75;;;;;;;;;;6127413;23;20337;-77
2023/01/01 01:57:57;;;;;;;26.45;3.92;;;;;;;;;;6127077;23;20018;-77
2023/01/01 02:00:23;;;;;;;26.25;3.65;;;;;;;;;;6127262;23;20004;-77
2023/01/01 02:03:01;;;;;;;22.48;4.32;;;;;;;;;;6127331;23;20002;-78
2023/01/01 02:05:28;;;;;;;25.75;4.07;;;;;;;;;;6127539;23;20009;-77
2023/01/01 02:07:55;;;;;;;22.63;4.35;;;;;;;;;;6127585;23;20002;-76
2023/01/01 02:10:21;;;;;;;23.98;4.22;;;;;;;;;;6127450;23;20002;-77
2023/01/01 02:12:47;;;;;;;32.22;5.15;;;;;;;;;;6127220;23;20012;-78
2023/01/01 02:15:13;;;;;;;27.30;4.95;;;;;;;;;;6127196;23;19998;-77
2023/01/01 02:17:43;;;;;;;21.52;4.00;;;;;;;;;;6127206;23;20004;-77
2023/01/01 02:20:25;;;;;;;32.88;5.03;;;;;;;;;;6127252;23;20006;-77
2023/01/01 02:23:15;;;;;;;31.00;5.03;;;13.60;99.90;;;;;;6127134;23;20002;-78
2023/01/01 02:25:59;;;;;;;36.05;5.13;;;13.50;1.00;;;;;;6127071;23;20065;-78
2023/01/01 02:28:37;;;;;;;27.67;4.50;;;13.40;1.00;;;;;;6100783;23;20434;-76
2023/01/01 02:31:04;;;;;;;35.33;5.30;;;13.40;1.00;;;;;;6100793;23;20089;-78
2023/01/01 02:33:30;;;;;;;32.85;5.88;;;13.30;1.00;;;;;;6127007;23;20001;-76
2023/01/01 02:36:01;;;;;;;33.58;5.25;;;13.30;1.00;;;;;;6127030;23;20006;-78
2023/01/01 02:38:39;;;;;;;32.20;5.18;;;13.30;1.00;;;;;;6127043;23;20010;-76
2023/01/01 02:41:10;;;;;;;38.15;5.90;;;13.30;1.00;;;;;;6126939;23;20006;-77
2023/01/01 02:43:37;;;;;;;32.28;5.78;;;13.30;1.00;;;;;;6127465;23;20005;-78
2023/01/01 02:46:08;;;;;;;31.75;5.50;;;13.20;1.00;;;;;;6126860;23;20010;-78
2023/01/01 02:48:47;;;;;;;29.40;4.80;;;13.20;1.00;;;;;;6127009;23;20444;-77
2023/01/01 02:51:13;;;;;;;32.13;4.85;;;13.20;1.00;;;;;;6126920;23;20429;-77
2023/01/01 02:53:51;;;;;;;33.95;5.45;;;13.10;1.00;;;;;;6126808;23;20002;-78
2023/01/01 02:56:37;;;;;;;28.42;4.88;;;13.20;1.00;;;;;;6126813;23;20012;-77
2023/01/01 03:02:32;;;;;;;33.28;5.55;;;13.10;1.00;;;;;;6126446;23;20017;-77
2023/01/01 03:05:25;;;;;;;29.60;4.85;;;13.00;1.00;;;;;;6126822;23;20005;-78
2023/01/01 03:08:00;;;;;;;31.13;5.30;;;13.00;1.00;;;;;;6126937;23;20515;-77
2023/01/01 03:10:57;;;;;;;32.33;5.50;;;13.00;1.00;;;;;;6126873;23;20337;-78
2023/01/01 03:13:57;;;;;;;35.65;5.80;;;13.00;1.00;;;;;;6100408;23;20036;-78
2023/01/01 03:16:37;;;;;;;29.73;4.50;;;13.00;1.00;;;;;;6126734;23;19998;-77
2023/01/01 03:19:09;;;;;;;31.95;5.15;;;;;;;;;;6126749;23;19998;-78
2023/01/01 03:21:48;;;;;;;27.38;4.88;;;12.90;19.00;;;;;;6127059;23;20006;-77
2023/01/01 03:24:30;;;;;;;31.92;4.43;;;;;;;;;;6127305;23;20001;-77
2023/01/01 03:27:00;;;;;;;37.78;5.65;;;;;;;;;;6126582;23;20013;-77
2023/01/01 03:29:28;;;;;;;32.53;4.85;;;;;;;;;;6126896;23;20002;-78
2023/01/01 03:31:56;;;;;;;32.97;4.43;;;;;;;;;;6126524;23;20020;-78
2023/01/01 03:34:28;;;;;;;37.33;5.38;;;;;;;;;;6126474;23;20065;-77
2023/01/01 03:36:57;;;;;;;25.83;4.25;;;;;;;;;;6126558;23;20006;-78
2023/01/01 03:39:26;;;;;;;35.35;5.25;;;;;;;;;;6126448;23;20077;-77
2023/01/01 03:42:06;;;;;;;35.55;5.15;;;;;;;;;;6126679;23;20451;-78
2023/01/01 03:44:42;;;;;;;35.92;5.97;;;;;;;;;;6126561;23;20464;-77
2023/01/01 03:47:09;;;;;;;33.58;4.95;;;;;;;;;;6124548;23;20002;-77
2023/01/01 03:49:36;;;;;;;33.38;5.63;;;;;;;;;;6126409;23;19998;-77
2023/01/01 03:52:11;;;;;;;34.25;5.63;;;;;;;;;;6126303;23;20049;-77
2023/01/01 03:54:46;;;;;;;38.72;5.63;;;;;;;;;;6126327;23;20559;-77
2023/01/01 03:57:15;;;;;;;30.53;5.33;;;;;;;;;;6124176;23;20078;-78
2023/01/01 04:00:09;;;;;;;32.65;4.78;;;;;;;;;;6126599;23;20093;-77
2023/01/01 04:02:38;;;;;;;35.97;5.35;;;;;;;;;;6121589;23;20319;-78
2023/01/01 04:05:06;;;;;;;26.30;4.88;;;;;;;;;;6126310;23;20002;-77
2023/01/01 04:07:32;;;;;;;28.15;4.30;;;;;;;;;;6124759;23;20002;-78
2023/01/01 04:09:58;;;;;;;;;;;;;;;;;;6126802;23;19998;-77
2023/01/01 04:12:24;;;;;;;32.78;5.10;;;;;;;;;;6126577;23;19908;-77
2023/01/01 04:14:50;;;;;;;29.23;4.68;;;;;;;;;;6126439;23;20034;-77
2023/01/01 04:17:17;;;;;;;32.22;5.13;;;;;;;;;;6124477;23;20344;-78
2023/01/01 04:19:43;;;;;;;31.15;5.03;;;;;;;;;;6126495;23;20006;-77
2023/01/01 04:22:09;;;;;;;33.13;5.15;;;;;;;;;;6126122;23;20002;-76
2023/01/01 04:24:35;;;;;;;;;;;;;;;;;;6126726;23;20057;-77
2023/01/01 04:27:01;;;;;;;24.88;4.18;;;;;;;;;;6126174;23;19901;-77
2023/01/01 04:29:27;;;;;;;;;;;;;;;;;;6126719;23;20084;-78
2023/01/01 04:31:53;;;;;;;27.80;4.88;;;;;;;;;;6126233;23;19968;-77
2023/01/01 04:34:19;;;;;;;;;;;;;;;;;;6126754;23;20341;-77
2023/01/01 04:36:45;;;;;;;27.50;4.38;;;;;;;;;;6126223;23;19904;-77
2023/01/01 04:39:11;;;;;;;;;;;;;;;;;;6126669;23;20441;-77
2023/01/01 04:41:37;;;;;;;31.08;4.22;;;;;;;;;;6126072;23;19908;-78
2023/01/01 04:44:03;;;;;;;31.30;4.13;;;;;;;;;;6124633;23;20496;-77
2023/01/01 04:46:29;;;;;;;33.53;5.40;;;;;;;;;;6124610;23;20310;-77
2023/01/01 04:48:55;;;;;;;27.13;3.97;;;;;;;;;;6124521;23;20013;-77
2023/01/01 04:51:21;;;;;;;;;;;;;;;;;;6126642;23;20009;-76
2023/01/01 04:53:47;;;;;;;27.15;4.00;;;;;;;;;;6126004;23;19905;-77
2023/01/01 04:56:13;;;;;;;;;;;;;;;;;;6126972;23;20006;-78
2023/01/01 04:58:41;;;;;;;26.05;4.78;;;;;;;;;;6100002;23;19913;-76
2023/01/01 05:01:07;;;;;;;30.98;4.38;;;;;;;;;;6126012;23;20077;-78
2023/01/01 05:03:34;;;;;;;37.45;5.13;;;;;;;;;;6126049;23;20080;-77
2023/01/01 05:06:04;;;;;;;29.45;4.65;;;;;;;;;;6126019;23;20069;-78
2023/01/01 05:08:31;;;;;;;30.73;4.22;;;;;;;;;;6127477;23;20484;-77
2023/01/01 05:11:00;;;;;;;26.58;4.40;;;;;;;;;;6127811;23;20012;-77
2023/01/01 05:13:27;;;;;;;28.05;4.32;;;;;;;;;;6127828;23;20455;-78
2023/01/01 05:15:53;;;;;;;;;;;;;;;;;;6128531;23;20475;-77
2023/01/01 05:18:19;;;;;;;22.58;4.03;;;;;;;;;;6128080;23;19901;-77
2023/01/01 05:20:45;;;;;;;;;;;;;;;;;;6128232;23;20002;-77
2023/01/01 05:23:11;;;;;;;32.47;4.38;;;;;;;;;;6101710;23;19901;-77
2023/01/01 05:25:37;;;;;;;28.23;4.88;;;;;;;;;;6128401;23;20006;-77
2023/01/01 05:28:03;;;;;;;;;;;;;;;;;;6128239;23;20440;-77
2023/01/01 05:30:29;;;;;;;34.17;4.97;;;;;;;;;;6127712;23;19900;-76
2023/01/01 05:32:55;;;;;;;27.77;3.72;;;;;;;;;;6127671;23;20314;-78
2023/01/01 05:35:21;;;;;;;;;;;;;;;;;;6128106;23;20115;-76
2023/01/01 05:37:47;;;;;;;27.15;3.92;;;;;;;;;;6127595;23;19905;-77
2023/01/01 05:40:13;;;;;;;33.33;4.60;;;;;;;;;;6127707;23;20002;-76
2023/01/01 05:42:39;;;;;;;;;;;;;;;;;;6126298;23;20093;-77
2023/01/01 05:45:05;;;;;;;26.42;3.97;;;;;;;;;;6127524;23;19911;-78
2023/01/01 05:47:31;;;;;;;33.42;4.80;;;;;;;;;;6127521;23;20310;-77
2023/01/01 05:49:57;;;;;;;26.05;4.55;;;;;;;;;;6127584;23;20009;-77
2023/01/01 05:52:23;;;;;;;;;;;;;;;;;;6128186;23;20002;-77
2023/01/01 05:54:49;;;;;;;29.75;4.30;;;;;;;;;;6127438;23;19932;-76
2023/01/01 05:57:15;;;;;;;;;;;;;;;;;;6127655;23;20088;-77
2023/01/01 05:59:41;;;;;;;27.45;4.18;;;;;;;;;;6127544;23;19905;-77
2023/01/01 06:02:07;;;;;;;30.23;5.03;;;;;;;;;;6127390;23;20016;-77
2023/01/01 06:04:33;;;;;;;;;;;;;;;;;;6127813;23;20045;-77
2023/01/01 06:06:59;;;;;;;25.45;4.03;;;;;;;;;;6127610;23;19904;-76
2023/01/01 06:09:27;;;;;;;28.92;4.75;;;;;;;;;;6127520;23;20005;-77
2023/01/01 06:11:53;;;;;;;29.77;4.80;;;;;;;;;;6127290;23;20006;-77
2023/01/01 06:14:19;;;;;;;;;;;;;;;;;;6127733;23;20336;-77
2023/01/01 06:16:45;;;;;;;26.20;4.80;;;;;;;;;;6127179;23;19979;-78
2023/01/01 06:19:11;;;;;;;29.33;4.75;;;;;;;;;;6126781;23;20024;-78
2023/01/01 06:21:37;;;;;;;;;;;;;;;;;;6127786;23;20009;-77
2023/01/01 06:24:03;;;;;;;27.63;4.18;;;;;;;;;;6127347;23;19901;-76
2023/01/01 06:26:30;;;;;;;30.55;4.65;;;;;;;;;;6127086;23;20311;-77
2023/01/01 06:28:57;;;;;;;28.38;4.72;;;;;;;;;;6127188;23;19998;-77
2023/01/01 06:31:23;;;;;;;31.10;4.60;;;;;;;;;;6127037;23;20053;-77
2023/01/01 06:33:50;;;;;;;26.30;4.13;;;;;;;;;;6127038;23;20314;-77
2023/01/01 06:36:17;;;;;;;26.80;4.00;;;;;;;;;;6126935;23;20478;-77
2023/01/01 06:38:44;;;;;;;28.48;4.30;;;;;;;;;;6125396;23;20429;-78
2023/01/01 06:41:12;;;;;;;30.95;5.00;;;;;;;;;;6126815;23;20006;-78
2023/01/01 06:43:38;;;;;;;24.80;3.83;;;;;;;;;;6127159;23;20067;-78
2023/01/01 06:46:06;;;;;;;26.63;4.85;;;;;;;;;;6126991;23;20422;-78
2023/01/01 06:48:33;;;;;;;27.15;4.00;;;;;;;;;;6126912;23;20069;-76
2023/01/01 06:51:04;;;;;;;33.85;4.93;;;;;;;;;;6126865;23;20001;-77
2023/01/01 06:53:30;;;;;;;26.38;4.70;;;;;;;;;;6127020;23;20005;-78
2023/01/01 06:55:56;;;;;;;;;;;;;;;;;;6127307;23;20001;-77
2023/01/01 06:58:22;;;;;;;31.50;4.85;;;;;;;;;;6126603;23;19935;-79
2023/01/01 07:00:48;;;;;;;27.02;3.95;;;;;;;;;;6126778;23;20041;-78
2023/01/01 07:03:14;;;;;;;;;;;;;;;;;;6127311;23;19998;-77
2023/01/01 07:05:40;;;;;;;26.10;3.65;;;;;;;;;;6126775;23;19907;-77
2023/01/01 07:08:06;;;;;;;;;;;;;;;;;;6127228;23;20006;-77
2023/01/01 07:10:32;;;;;;;24.90;4.05;;;;;;;;;;6100711;23;19904;-77
2023/01/01 07:12:59;;;;;;;;;;;;;;;;;;6127327;23;19998;-78
2023/01/01 07:15:26;;;;;;;24.27;3.72;;;;;;;;;;6100715;23;19900;-77
2023/01/01 07:17:52;;;;;;;27.90;3.97;;;;;;;;;;6126696;23;20339;-77
2023/01/01 07:20:18;;;;;;;21.02;3.33;;;;;;;;;;6126661;23;20006;-78
2023/01/01 07:22:44;;;;;;;;;;;;;;;;;;6127044;23;20425;-77
2023/01/01 07:25:13;;;;;;;22.30;3.22;;;;;;;;;;6100604;23;19932;-77
2023/01/01 07:27:39;;;;;;;29.40;3.90;;;;;;;;;;6126551;23;20005;-77
2023/01/01 07:30:06;;;;;;;23.55;3.90;;;;;;;;;;6126986;23;20013;-76
2023/01/01 07:32:32;;;;;;;25.15;3.95;;;;;;;;;;6126740;23;20115;-78
2023/01/01 07:34:58;;;;;;;;;;;;;;;;;;6127133;23;20016;-77
2023/01/01 07:37:25;;;;;;;21.35;3.13;;;;;;;;;;6126543;23;19924;-77
2023/01/01 07:39:51;;;;;;;21.40;3.65;;;;;;;;;;6126763;23;20444;-77
2023/01/01 07:42:17;;;;;;;19.67;3.30;;;;;;;;;;6126404;23;20009;-78
2023/01/01 07:44:43;;;;;;;;;;;;;;;;;;6127182;23;20440;-77
2023/01/01 07:47:16;;;;;;;20.60;3.60;;;;;;;;;;6126431;23;19956;-78
2023/01/01 07:49:42;;;;;;;20.33;3.40;;;;;;;;;;6126468;23;19997;-77
2023/01/01 07:52:09;;;;;;;23.90;3.85;;;;;;;;;;6126379;23;20425;-77
2023/01/01 07:54:34;;;;;;;;;;;;;;;;;;6126823;23;20006;-76
2023/01/01 07:57:00;;;;;;;19.90;3.35;;;;;;;;;;6126187;23;20326;-78
2023/01/01 07:59:26;;;;;;;22.20;3.28;;;;;;;;;;6126408;23;20010;-77
2023/01/01 08:01:52;;;;;;;;;;;;;;;;;;6126724;23;20006;-77
2023/01/01 08:04:18;;;;;;;21.10;3.38;;;;;;;;;;6126376;23;20243;-79
2023/01/01 08:06:46;;;;;;;22.33;3.35;;;;;;;;;;6126527;23;20018;-76
2023/01/01 08:09:12;;;;;;;;;;;;;;;;;;6126806;23;20057;-78
2023/01/01 08:11:38;;;;;;;21.45;3.33;;;;;;;;;;6126322;23;19905;-77
2023/01/01 08:14:04;;;;;;;24.10;3.20;;;;;;;;;;6126723;23;20002;-77
2023/01/01 08:16:30;;;;;;;;;;;;;;;;;;6126782;23;20365;-77
2023/01/01 08:18:56;;;;;;;21.42;3.28;;;;;;;;;;6126312;23;19998;-77
2023/01/01 08:21:22;;;;;;;;;;;;;;;;;;6126693;23;20002;-77
2023/01/01 08:23:48;;;;;;;24.15;4.07;;;;;;;;;;6126227;23;20006;-78
2023/01/01 08:26:15;;;;;;;22.85;2.85;;;;;;;;;;6126647;23;20005;-77
2023/01/01 08:28:41;;;;;;;22.90;3.40;;;;;;;;;;6126213;23;20002;-78
2023/01/01 08:31:07;;;;;;;20.13;3.15;;;;;;;;;;6126295;23;20006;-79
2023/01/01 08:33:34;;;;;;;22.58;3.95;;;;;;;;;;6126155;23;20013;-77
2023/01/01 08:35:59;;;;;;;;;;;;;;;;;;6126918;23;20002;-77
2023/01/01 08:38:26;;;;;;;22.30;3.47;;;;;;;;;;6126561;23;19901;-77
2023/01/01 08:40:52;;;;;;;16.08;3.08;;;;;;;;;;6126307;23;20337;-78
2023/01/01 08:43:18;;;;;;;20.70;2.75;;;;;;;;;;6127461;23;20078;-77
2023/01/01 08:45:45;;;;;;;20.40;3.05;;;;;;;;;;6128168;23;20005;-76
2023/01/01 08:48:11;;;;;;;22.38;3.60;;;;;;;;;;6128305;23;20052;-77
2023/01/01 08:50:37;;;;;;;;;;;;;;;;;;6128645;23;19998;-77
2023/01/01 08:53:03;;;;;;;23.02;3.90;;;;;;;;;;6128127;23;19984;-78
2023/01/01 08:55:30;;;;;;;22.92;3.47;;;;;;;;;;6127891;23;20049;-78
2023/01/01 08:57:56;;;;;;;23.90;3.60;;;;;;;;;;6127748;23;20348;-77
2023/01/01 09:00:22;;;;;;;23.83;3.75;;;;;;;;;;6126322;23;20390;-76
2023/01/01 09:02:48;;;;;;;26.63;3.03;;;;;;;;;;6127762;23;20012;-77
2023/01/01 09:05:14;;;;;;;;;;;;;;;;;;6128541;23;20445;-79
2023/01/01 09:07:40;;;;;;;22.70;3.13;;;;;;;;;;6127920;23;19908;-77
2023/01/01 09:10:06;;;;;;;;;;;;;;;;;;6128359;23;20005;-78
2023/01/01 09:12:32;;;;;;;19.63;3.00;;;;;;;;;;6128096;23;19968;-76
2023/01/01 09:14:58;;;;;;;;;;;;;;;;;;6128258;23;20060;-77
2023/01/01 09:17:24;;;;;;;24.95;3.70;;;;;;;;;;6127852;23;19980;-77
2023/01/01 09:19:50;;;;;;;19.52;3.17;;;;;;;;;;6127733;23;20009;-78
2023/01/01 09:22:16;;;;;;;;;;;;;;;;;;6128584;23;20110;-78
2023/01/01 09:24:42;;;;;;;21.05;3.03;;;;;;;;;;6127754;23;19901;-77
2023/01/01 09:27:08;;;;;;;;;;;;;;;;;;6128192;23;20069;-78
2023/01/01 09:29:34;;;;;;;19.83;2.70;;;;;;;;;;6127697;23;19932;-77
2023/01/01 09:32:00;;;;;;;;;;;;;;;;;;6128587;23;20006;-77
2023/01/01 09:34:26;;;;;;;24.55;3.50;;;;;;;;;;6128041;23;20428;-78
2023/01/01 09:36:52;;;;;;;;;;;;;;;;;;6128134;23;20006;-77
2023/01/01 09:39:18;;;;;;;25.17;3.38;;;;;;;;;;6127573;23;19972;-77
2023/01/01 09:41:44;;;;;;;;;;;;;;;;;;6128203;23;20002;-78
2023/01/01 09:44:10;;;;;;;26.73;3.88;;;;;;;;;;6101535;23;19984;-78
2023/01/01 09:46:36;;;;;;;22.83;3.65;;;;;;;;;;6127590;23;20005;-78
2023/01/01 09:49:05;;;;;;;22.83;4.00;;;;;;;;;;6127533;23;20002;-77
2023/01/01 09:51:34;;;;;;;25.20;3.17;;;;;;;;;;6127591;23;20006;-78
2023/01/01 09:54:00;;;;;;;18.70;3.50;;;;;;;;;;6126704;23;20073;-77
2023/01/01 09:56:26;;;;;;;;;;;;;;;;;;6128413;23;20006;-77
2023/01/01 09:58:54;;;;;;;26.60;3.70;;;;;;;;;;6126885;23;19920;-78
2023/01/01 10:01:20;;;;;;;27.70;3.92;;;;;;;;;;6125654;23;20010;-77
2023/01/01 10:04:00;;;;;;;27.17;3.78;;;;;;;;;;6127331;23;20026;-77
2023/01/01 10:06:37;;;;;;;22.65;3.97;;;;;;;;;;6127604;23;20022;-78
2023/01/01 10:09:09;;;;;;;17.95;3.40;;;;;;;;;;6127458;23;19998;-77
2023/01/01 10:11:38;;;;;;;25.75;3.97;;;;;;;;;;6127436;23;20002;-78
2023/01/01 10:14:10;;;;;;;32.35;3.70;;;;;;;;;;6127261;23;20029;-77
2023/01/01 10:16:39;;;;;;;23.98;3.95;;;;;;;;;;6127471;23;20006;-76
2023/01/01 10:19:24;;;;;;;25.35;4.43;;;;;;;;;;6127186;23;20013;-77
2023/01/01 10:21:51;;;;;;;24.05;3.97;;;;;;;;;;6127114;23;20392;-78
2023/01/01 10:24:18;;;;;;;23.05;3.65;;;;;;;;;;6127444;23;20002;-76
2023/01/01 10:26:44;;;;;;;23.88;4.40;;;;;;;;;;6127139;23;20081;-77
2023/01/01 10:29:14;;;;;;;23.25;3.95;;;;;;;;;;6127102;23;20005;-78
2023/01/01 10:31:47;;;;;;;32.30;4.38;;;;;;;;;;6127365;23;20441;-77
2023/01/01 10:34:16;;;;;;;29.73;4.70;;;;;;;;;;6127123;23;20002;-77
2023/01/01 10:36:45;;;;;;;24.88;4.75;;;;;;;;;;6127296;23;20396;-78
2023/01/01 10:39:15;;;;;;;22.02;4.05;;;;;;;;;;6127073;23;20006;-78
2023/01/01 10:41:42;;;;;;;27.65;4.65;;;;;;;;;;6126995;23;20009;-77
2023/01/01 10:44:09;;;;;;;26.60;4.43;;;;;;;;;;6127179;23;20029;-77
2023/01/01 10:46:37;;;;;;;24.83;3.75;;;;;;;;;;6125400;23;20006;-76
2023/01/01 10:49:11;;;;;;;27.20;4.20;;;;;;;;;;6127105;23;19998;-77
2023/01/01 10:51:45;;;;;;;26.20;4.05;;;;;;;;;;6126918;23;20073;-77
2023/01/01 10:54:29;;;;;;;29.65;4.53;;;;;;;;;;6127050;23;20073;-76
2023/01/01 10:56:55;;;;;;;24.42;4.35;;;;;;;;;;6126842;23;20468;-76
2023/01/01 10:59:33;;;;;;;27.60;4.13;;;;;;;;;;6126366;23;20024;-76
2023/01/01 11:02:07;;;;;;;24.17;3.67;;;;;;;;;;6126989;23;20013;-76
2023/01/01 11:04:33;;;;;;;28.13;3.60;;;;;;;;;;6124840;23;20356;-76
2023/01/01 11:06:59;;;;;;;;;;;;;;;;;;6125576;23;20013;-76
2023/01/01 11:09:27;;;;;;;21.85;3.70;;;;;;;;;;6126703;23;19901;-75
2023/01/01 11:12:00;;;;;;;25.52;4.20;;;;;;;;;;6127221;23;20044;-75
2023/01/01 11:14:27;;;;;;;29.80;4.13;;;;;;;;;;6126680;23;20006;-77
2023/01/01 11:16:54;;;;;;;27.38;4.38;;;;;;;;;;6126700;23;20009;-76
2023/01/01 11:19:20;;;;;;;26.30;4.03;;;;;;;;;;6126681;23;20013;-75
2023/01/01 11:21:47;;;;;;;23.63;3.72;;;;;;;;;;6126574;23;20061;-76
2023/01/01 11:24:24;;;;;;;24.52;4.30;;;;;;;;;;6126845;23;20077;-77
2023/01/01 11:26:51;;;;;;;23.17;3.45;;;;;;;;;;6126868;23;20314;-75
2023/01/01 11:29:21;;;;;;;27.13;3.97;;;;;;;;;;6126493;23;19998;-76
2023/01/01 11:31:48;;;;;;;26.65;3.72;;;;;;;;;;6126774;23;20024;-76
2023/01/01 11:34:37;;;;;;;21.33;4.10;;;;;;;;;;6126788;23;20138;-75
2023/01/01 11:37:26;;;;;;;22.80;4.07;;;;;;;;;;6126756;23;20009;-76
2023/01/01 11:39:53;;;;;;;26.20;4.07;;;;;;;;;;6110655;23;20007;-77
2023/01/01 11:42:24;;;;;;;21.67;3.90;;;;;;;;;;6126656;23;20441;-77
2023/01/01 11:45:01;;;;;;;23.80;3.67;;;;;;;;;;6126728;23;20002;-77
2023/01/01 11:47:35;;;;;;;18.58;2.88;;;;;;;;;;6126620;23;19998;-78
2023/01/01 11:50:02;;;;;;;23.88;3.95;;;;;;;;;;6126757;23;20069;-78
2023/01/01 11:52:28;;;;;;;;;;;;;;;;;;6126988;23;20006;-78
2023/01/01 11:55:00;;;;;;;20.92;3.53;;;;;;;;;;6126547;23;19901;-77
2023/01/01 11:57:27;;;;;;;22.10;3.75;;;;;;;;;;6126249;23;20441;-79
2023/01/01 11:59:55;;;;;;;19.92;3.38;;;;;;;;;;6126457;23;20077;-78
2023/01/01 12:02:33;;;;;;;22.65;3.35;;;;;;;;;;6126442;23;20085;-78
2023/01/01 12:05:22;;;;;;;21.95;4.10;;;;;;;;;;6126284;23;20002;-78
2023/01/01 12:07:49;;;;;;;17.90;3.45;;;;;;;;;;6111288;23;20437;-79
2023/01/01 12:10:27;;;;;;;17.83;3.38;;;;;;;;;;6126321;23;19998;-77
2023/01/01 12:12:57;;;;;;;13.15;2.72;;;;;;;;;;6126628;23;20009;-79
2023/01/01 12:15:34;;;;;;;13.43;3.03;;;;;;;;;;6126444;23;20341;-77
2023/01/01 12:18:18;;;;;;;14.40;2.83;;;;;;;;;;6125781;23;20141;-77
2023/01/01 12:20:56;;;;;;;13.73;2.60;;;;;;;;;;6128262;23;20445;-78
2023/01/01 12:23:22;;;;;;;18.75;2.67;;;;;;;;;;6126732;23;20034;-76
2023/01/01 12:26:12;;;;;;;15.15;3.20;;;;;;;;;;6128226;23;20013;-77
2023/01/01 12:29:13;;;;;;;17.50;2.70;;;;;;;;;;6113239;23;20018;-77
2023/01/01 12:31:42;;;;;;;13.35;2.85;;;;;;;;;;6010744;23;20053;-78
2023/01/01 12:34:16;;;;;;;13.63;2.67;;;;;;;;;;6107044;23;20009;-76
2023/01/01 12:36:42;;;;;;;13.52;2.05;;;;;;;;;;6128534;23;20037;-76
2023/01/01 12:39:27;;;;;;;14.68;2.50;;;;;;;;;;6128169;23;20017;-78
2023/01/01 12:41:59;;;;;;;10.03;2.00;;;;;;;;;;6128097;23;20006;-76
2023/01/01 12:44:34;;;;;;;14.02;2.47;;;;;;;;;;6128130;23;20002;-77
2023/01/01 12:47:07;;;;;;;13.45;2.75;;;;;;;;;;6126623;23;20449;-77
2023/01/01 12:49:38;;;;;;;16.20;2.50;;;;;;;;;;6128191;23;19998;-77
2023/01/01 12:52:04;;;;;;;11.27;2.15;;;;;;;;;;6128077;23;20013;-79
2023/01/01 12:54:31;;;;;;;;;;;;;;;;;;6128464;23;20002;-76
2023/01/01 12:57:06;;;;;;;14.02;3.38;;;;;;;;;;6128084;23;19924;-75
2023/01/01 12:59:34;;;;;;;11.48;2.25;;;;;;;;;;6127546;23;20014;-77
2023/01/01 13:02:01;;;;;;;13.35;2.70;;;;;;;;;;6127849;23;20002;-77
2023/01/01 13:04:28;;;;;;;16.77;6.35;;;;;;;;;;6127951;23;20006;-77
2023/01/01 13:07:02;;;;;;;16.15;3.95;;;;;;;;;;6127942;23;19998;-78
2023/01/01 13:09:30;;;;;;;11.80;2.30;;;;;;;;;;6127996;23;20341;-76
2023/01/01 13:11:59;;;;;;;17.08;2.78;;;;;;;;;;6127901;23;20027;-77
2023/01/01 13:14:25;;;;;;;17.25;2.88;;;;;;;;;;6127809;23;20006;-77
2023/01/01 13:16:51;;;;;;;;;;;;;;;;;;6128744;23;20314;-76
2023/01/01 13:19:25;;;;;;;8.13;1.77;;;;;;;;;;6127791;23;19901;-77
2023/01/01 13:21:51;;;;;;;13.45;2.72;;;;;;;;;;6128361;23;20114;-75
2023/01/01 13:24:22;;;;;;;16.10;6.13;;;;;;;;;;6127772;23;20005;-77
2023/01/01 13:26:48;;;;;;;14.00;2.70;;;;;;;;;;6127702;23;20002;-77
2023/01/01 13:29:15;;;;;;;12.07;2.80;;;;;;;;;;6127558;23;20024;-77
2023/01/01 13:31:41;;;;;;;13.52;2.80;;;;;;;;;;6127872;23;20006;-76
2023/01/01 13:34:26;;;;;;;13.68;3.03;;;;;;;;;;6127631;23;20504;-77
2023/01/01 13:37:19;;;;;;;10.68;2.92;;;;;;;;;;6127687;23;20002;-75
2023/01/01 13:39:54;;;;;;;14.02;3.22;;;;;;;;;;6127464;23;20040;-77
2023/01/01 13:42:39;;;;;;;11.43;2.08;;;;;;;;;;6127543;23;20010;-76
2023/01/01 13:45:15;;;;;;;11.60;4.72;;;;;;;;;;6127581;23;20002;-77
2023/01/01 13:47:52;;;;;;;13.23;4.75;;;;;;;;;;6127768;23;20456;-76
2023/01/01 13:50:25;;;;;;;15.95;2.70;;;;;;;;;;6127550;23;20014;-77
2023/01/01 13:53:10;;;;;;;11.07;2.88;;;;;;;;;;6127386;23;20013;-77
2023/01/01 13:55:54;;;;;;;10.73;2.28;;;;;;;;;;6127515;23;20002;-77
2023/01/01 13:58:28;;;;;;;13.27;2.97;;;;;;;;;;6127199;23;20017;-78
2023/01/01 14:01:06;;;;;;;8.35;2.20;;;;;;;;;;6127634;23;20006;-77
2023/01/01 14:03:36;;;;;;;12.15;3.28;;;;;;;;;;6127420;23;19998;-77
2023/01/01 14:06:03;;;;;;;12.10;2.88;;;;;;;;;;6127319;23;20002;-76
2023/01/01 14:08:31;;;;;;;12.70;2.95;;;;;;;;;;6127343;23;20009;-77
2023/01/01 14:10:59;;;;;;;15.95;2.50;;;;;;;;;;6127512;23;20002;-77
2023/01/01 14:13:28;;;;;;;17.02;2.67;;;;;;;;;;6127495;23;20069;-77
2023/01/01 14:15:59;;;;;;;12.00;2.53;;;;;;;;;;6127268;23;20338;-77
2023/01/01 14:18:37;;;;;;;14.95;3.00;;;;;;;;;;6127272;23;19998;-77
2023/01/01 14:21:07;;;;;;;13.38;2.78;;;;;;;;;;6127350;23;20002;-76
2023/01/01 14:23:35;;;;;;;11.23;2.50;;;;;;;;;;6127617;23;19998;-77
2023/01/01 14:26:02;;;;;;;11.85;2.83;;;;;;;;;;6127152;23;20009;-77
2023/01/01 14:28:30;;;;;;;12.70;3.20;;;;;;;;;;6127116;23;20004;-77
2023/01/01 14:30:57;;;;;;;10.13;2.88;;;;;;;;;;6127127;23;19998;-78
2023/01/01 14:33:24;;;;;;;9.77;2.42;;;;;;;;;;6127132;23;20002;-76
2023/01/01 14:35:51;;;;;;;13.63;2.90;;;;;;;;;;6127211;23;19998;-77
2023/01/01 14:38:27;;;;;;;10.13;2.42;;;;;;;;;;6127152;23;20009;-77
2023/01/01 14:41:07;;;;;;;10.00;2.50;;;;;;;;;;6126598;23;20380;-76
2023/01/01 14:43:37;;;;;;;12.35;3.17;;;;;;;;;;6125214;23;20057;-78
2023/01/01 14:46:05;;;;;;;10.73;2.92;;;;;;;;;;6127432;23;20008;-77
2023/01/01 14:48:31;;;;;;;10.82;2.63;;;;;;;;;;6127051;23;20057;-76
2023/01/01 14:50:57;;;;;;;12.05;2.72;;;;;;;;;;6127027;23;20053;-75
2023/01/01 14:53:29;;;;;;;16.77;3.10;;;;;;;;;;6127369;23;20009;-76
2023/01/01 14:55:55;;;;;;;13.25;3.78;;;;;;;;;;6127385;23;20042;-77
2023/01/01 14:58:21;;;;;;;;;;;;;;;;;;6127313;23;20129;-77
2023/01/01 15:00:47;;;;;;;16.13;6.70;;;;;;;;;;6127146;23;20316;-78